createdAt,value
2018-05-11T00:02:17.580Z,15.10
2018-05-11T00:04:49.774Z,15.20
2018-05-11T00:07:17.284Z,15.20
2018-05-11T00:09:45.687Z,15.20
2018-05-11T00:12:13.199Z,15.20
2018-05-11T00:14:40.726Z,15.20
2018-05-11T00:17:09.859Z,15.00
2018-05-11T00:19:37.381Z,15.00
2018-05-11T00:22:05.668Z,15.10
2018-05-11T00:24:37.127Z,15.10
2018-05-11T00:27:04.642Z,15.10
2018-05-11T00:29:32.169Z,15.10
2018-05-11T00:32:00.266Z,15.00
2018-05-11T00:34:28.293Z,15.10
2018-05-11T00:36:55.796Z,15.10
2018-05-11T00:39:23.382Z,15.10
2018-05-11T00:41:51.652Z,15.00
2018-05-11T00:44:19.934Z,14.90
2018-05-11T00:46:48.208Z,14.80
2018-05-11T00:49:16.624Z,14.90
2018-05-11T00:51:44.279Z,14.90
2018-05-11T00:54:11.858Z,14.90
2018-05-11T00:56:39.473Z,14.90
2018-05-11T00:59:07.745Z,14.90
2018-05-11T01:01:35.270Z,14.90
2018-05-11T01:04:02.823Z,14.80
2018-05-11T01:06:31.079Z,14.80
2018-05-11T01:08:58.600Z,14.80
2018-05-11T01:11:26.956Z,14.70
2018-05-11T01:13:54.456Z,14.70
2018-05-11T01:16:22.754Z,14.70
2018-05-11T01:18:50.303Z,14.70
2018-05-11T01:21:17.805Z,14.80
2018-05-11T01:23:45.321Z,14.80
2018-05-11T01:26:12.818Z,14.90
2018-05-11T01:28:40.351Z,14.80
2018-05-11T01:31:08.322Z,14.80
2018-05-11T01:33:37.702Z,14.80
2018-05-11T01:36:05.999Z,14.60
2018-05-11T01:38:33.521Z,14.60
2018-05-11T01:41:01.062Z,14.60
2018-05-11T01:43:28.592Z,14.70
2018-05-11T01:45:56.179Z,14.70
2018-05-11T01:48:23.825Z,14.80
2018-05-11T01:50:51.417Z,14.80
2018-05-11T01:53:18.973Z,15.00
2018-05-11T01:55:50.754Z,15.00
2018-05-11T01:58:19.019Z,14.90
2018-05-11T02:00:47.301Z,15.00
2018-05-11T02:03:15.569Z,15.00
2018-05-11T02:05:43.077Z,14.90
2018-05-11T02:08:10.574Z,15.00
2018-05-11T02:10:38.082Z,14.90
2018-05-11T02:13:05.589Z,14.80
2018-05-11T02:15:33.114Z,14.90
2018-05-11T02:18:00.624Z,14.90
2018-05-11T02:20:28.432Z,15.00
2018-05-11T02:22:55.955Z,15.00
2018-05-11T02:25:24.232Z,15.10
2018-05-11T02:27:52.788Z,15.00
2018-05-11T02:30:20.326Z,15.00
2018-05-11T02:32:47.850Z,14.90
2018-05-11T02:35:15.857Z,14.90
2018-05-11T02:37:43.382Z,14.90
2018-05-11T02:40:10.958Z,15.00
2018-05-11T02:42:38.466Z,15.00
2018-05-11T02:45:05.984Z,15.10
2018-05-11T02:47:33.490Z,15.00
2018-05-11T02:50:01.016Z,15.10
2018-05-11T02:52:28.527Z,15.00
2018-05-11T02:54:56.807Z,15.00
2018-05-11T02:57:25.159Z,15.00
2018-05-11T02:59:52.935Z,15.00
2018-05-11T03:02:20.427Z,15.10
2018-05-11T03:04:48.003Z,15.10
2018-05-11T03:07:15.544Z,15.10
2018-05-11T03:09:43.038Z,15.00
2018-05-11T03:12:10.602Z,15.00
2018-05-11T03:14:38.881Z,14.90
2018-05-11T03:17:07.158Z,14.90
2018-05-11T03:19:34.658Z,14.90
2018-05-11T03:22:02.989Z,14.80
2018-05-11T03:24:30.623Z,14.80
2018-05-11T03:26:58.221Z,14.70
2018-05-11T03:29:25.830Z,14.80
2018-05-11T03:31:53.421Z,14.80
2018-05-11T03:47:25.968Z,14.80
2018-05-11T03:49:53.493Z,14.10
2018-05-11T03:52:21.029Z,14.30
2018-05-11T03:54:48.574Z,14.40
2018-05-11T03:57:16.191Z,14.50
2018-05-11T03:59:44.467Z,14.60
2018-05-11T04:02:24.677Z,14.60
2018-05-11T04:05:04.236Z,14.60
2018-05-11T04:07:43.444Z,14.60
2018-05-11T04:10:10.985Z,14.60
2018-05-11T04:12:38.505Z,14.60
2018-05-11T04:15:06.813Z,14.60
2018-05-11T04:17:35.050Z,14.60
2018-05-11T04:20:02.561Z,14.70
2018-05-11T04:22:30.240Z,14.60
2018-05-11T04:24:57.740Z,14.70
2018-05-11T04:27:26.074Z,14.80
2018-05-11T04:29:54.862Z,14.80
2018-05-11T04:32:22.402Z,14.90
2018-05-11T04:34:51.035Z,14.80
2018-05-11T04:37:19.208Z,14.70
2018-05-11T04:39:46.662Z,14.70
2018-05-11T04:42:14.172Z,14.70
2018-05-11T04:44:41.726Z,14.70
2018-05-11T04:47:10.229Z,14.70
2018-05-11T04:49:37.806Z,14.80
2018-05-11T04:52:09.291Z,14.80
2018-05-11T04:54:41.749Z,14.90
2018-05-11T04:57:09.254Z,14.90
2018-05-11T04:59:36.770Z,14.90
2018-05-11T05:02:04.289Z,14.90
2018-05-11T05:04:31.953Z,14.90
2018-05-11T05:06:59.486Z,14.90
2018-05-11T05:09:27.149Z,14.90
2018-05-11T05:11:54.976Z,14.90
2018-05-11T05:24:13.317Z,14.40
2018-05-11T05:26:41.588Z,14.50
2018-05-11T05:29:09.865Z,14.60
2018-05-11T05:31:42.360Z,14.80
2018-05-11T05:34:09.894Z,14.80
2018-05-11T05:36:37.408Z,14.90
2018-05-11T05:39:05.011Z,14.90
2018-05-11T05:41:32.470Z,15.00
2018-05-11T05:43:59.984Z,15.00
2018-05-11T05:46:27.486Z,15.10
2018-05-11T05:48:55.026Z,15.10
2018-05-11T05:51:22.525Z,15.20
2018-05-11T05:53:50.815Z,15.10
2018-05-11T05:56:18.317Z,15.00
2018-05-11T05:58:45.849Z,15.10
2018-05-11T06:01:13.340Z,15.10
2018-05-11T06:03:40.938Z,15.10
2018-05-11T06:06:09.210Z,15.10
2018-05-11T06:08:37.487Z,15.20
2018-05-11T06:11:05.773Z,15.20
2018-05-11T06:13:33.333Z,15.20
2018-05-11T06:16:01.606Z,15.30
2018-05-11T06:18:29.865Z,15.30
2018-05-11T06:20:57.373Z,15.30
2018-05-11T06:23:24.861Z,15.30
2018-05-11T06:25:52.383Z,15.30
2018-05-11T06:28:19.882Z,15.40
2018-05-11T06:30:47.442Z,15.40
2018-05-11T06:33:15.044Z,15.50
2018-05-11T06:35:42.673Z,15.60
2018-05-11T06:38:10.885Z,15.60
2018-05-11T06:40:38.456Z,15.60
2018-05-11T06:43:06.705Z,15.70
2018-05-11T06:45:34.968Z,15.70
2018-05-11T06:48:02.482Z,15.70
2018-05-11T06:50:29.978Z,15.80
2018-05-11T06:52:57.465Z,15.90
2018-05-11T06:55:26.325Z,16.00
2018-05-11T06:57:53.837Z,16.00
2018-05-11T07:00:21.422Z,16.10
2018-05-11T07:02:49.026Z,16.10
2018-05-11T07:05:17.312Z,16.30
2018-05-11T07:07:45.660Z,16.50
2018-05-11T07:10:13.898Z,16.50
2018-05-11T07:12:41.451Z,16.50
2018-05-11T07:15:09.376Z,16.60
2018-05-11T07:17:36.897Z,16.60
2018-05-11T07:20:04.397Z,16.60
2018-05-11T07:22:31.906Z,16.80
2018-05-11T07:24:59.401Z,17.00
2018-05-11T07:27:27.271Z,17.10
2018-05-11T07:29:54.885Z,17.30
2018-05-11T07:32:22.426Z,17.40
2018-05-11T07:34:49.972Z,17.40
2018-05-11T07:37:17.450Z,17.50
2018-05-11T07:39:44.985Z,17.50
2018-05-11T07:42:13.322Z,17.10
2018-05-11T07:44:41.064Z,17.10
2018-05-11T07:47:08.592Z,17.20
2018-05-11T07:49:36.874Z,17.90
2018-05-11T07:52:05.141Z,18.20
2018-05-11T07:54:33.448Z,18.40
2018-05-11T07:57:00.999Z,18.40
2018-05-11T07:59:28.577Z,18.40
2018-05-11T08:01:56.141Z,18.90
2018-05-11T08:04:23.644Z,19.30
2018-05-11T08:06:51.158Z,19.70
2018-05-11T08:09:18.655Z,20.00
2018-05-11T08:11:46.170Z,20.20
2018-05-11T08:14:13.725Z,20.50
2018-05-11T08:16:41.220Z,20.80
2018-05-11T08:19:08.749Z,21.00
2018-05-11T08:21:36.254Z,20.50
2018-05-11T08:24:03.795Z,20.50
2018-05-11T08:26:31.389Z,20.50
2018-05-11T08:28:58.828Z,20.70
2018-05-11T08:31:26.351Z,20.80
2018-05-11T08:33:54.489Z,20.90
2018-05-11T08:36:22.750Z,21.30
2018-05-11T08:38:50.262Z,21.30
2018-05-11T08:41:18.097Z,21.50
2018-05-11T08:43:46.379Z,21.70
2018-05-11T08:46:14.222Z,21.70
2018-05-11T08:48:41.769Z,21.70
2018-05-11T08:51:09.278Z,21.50
2018-05-11T08:53:36.773Z,21.30
2018-05-11T08:56:04.290Z,21.20
2018-05-11T08:58:31.797Z,21.20
2018-05-11T09:00:59.314Z,21.20
2018-05-11T09:03:26.829Z,21.00
2018-05-11T09:05:54.361Z,20.90
2018-05-11T09:08:21.907Z,20.90
2018-05-11T09:10:49.800Z,20.80
2018-05-11T09:13:17.322Z,21.00
2018-05-11T09:15:44.816Z,21.20
2018-05-11T09:18:12.371Z,21.70
2018-05-11T09:20:39.909Z,22.10
2018-05-11T09:23:07.862Z,22.30
2018-05-11T09:25:35.377Z,22.10
2018-05-11T09:28:02.899Z,22.10
2018-05-11T09:30:30.400Z,22.00
2018-05-11T09:32:57.930Z,21.70
2018-05-11T09:35:25.569Z,21.00
2018-05-11T09:37:53.078Z,20.90
2018-05-11T09:40:20.611Z,20.70
2018-05-11T09:42:48.245Z,20.40
2018-05-11T09:45:15.749Z,20.30
2018-05-11T09:47:43.270Z,20.10
2018-05-11T09:50:10.832Z,20.00
2018-05-11T09:52:38.323Z,20.00
2018-05-11T09:55:05.868Z,19.90
2018-05-11T09:57:33.349Z,19.90
2018-05-11T10:00:00.868Z,19.90
2018-05-11T10:02:28.388Z,19.80
2018-05-11T10:04:56.754Z,19.80
2018-05-11T10:07:24.725Z,19.80
2018-05-11T10:09:52.261Z,19.70
2018-05-11T10:12:20.525Z,19.70
2018-05-11T10:14:48.032Z,19.70
2018-05-11T10:17:16.307Z,19.20
2018-05-11T10:19:44.586Z,19.20
2018-05-11T10:22:12.877Z,19.20
2018-05-11T10:24:41.142Z,19.30
2018-05-11T10:27:09.441Z,19.30
2018-05-11T10:29:36.933Z,19.20
2018-05-11T10:32:04.464Z,19.00
2018-05-11T10:34:32.076Z,19.00
2018-05-11T10:37:00.288Z,19.10
2018-05-11T10:39:27.785Z,19.10
2018-05-11T10:41:55.329Z,19.20
2018-05-11T10:44:22.858Z,19.40
2018-05-11T10:46:51.165Z,19.60
2018-05-11T10:49:18.704Z,19.60
2018-05-11T10:51:46.223Z,19.60
2018-05-11T10:54:13.745Z,19.70
2018-05-11T10:56:41.277Z,19.70
2018-05-11T10:59:08.862Z,19.60
2018-05-11T11:01:36.364Z,19.40
2018-05-11T11:04:03.875Z,19.30
2018-05-11T11:06:31.380Z,19.40
2018-05-11T11:08:59.053Z,19.40
2018-05-11T11:11:26.578Z,19.70
2018-05-11T11:13:54.158Z,19.90
2018-05-11T11:16:21.786Z,19.90
2018-05-11T11:18:49.303Z,19.80
2018-05-11T11:21:17.582Z,20.00
2018-05-11T11:23:45.911Z,20.00
2018-05-11T11:26:13.419Z,20.00
2018-05-11T11:28:41.718Z,19.70
2018-05-11T11:31:09.880Z,19.70
2018-05-11T11:33:38.227Z,19.60
2018-05-11T11:36:06.618Z,19.60
2018-05-11T11:38:34.152Z,19.70
2018-05-11T11:41:02.022Z,19.80
2018-05-11T11:43:29.553Z,20.00
2018-05-11T11:45:57.125Z,20.40
2018-05-11T11:48:24.630Z,20.50
2018-05-11T11:50:52.893Z,20.90
2018-05-11T11:53:20.429Z,20.80
2018-05-11T11:55:48.712Z,20.80
2018-05-11T11:58:16.225Z,20.50
2018-05-11T12:00:44.447Z,20.60
2018-05-11T12:03:11.978Z,20.80
2018-05-11T12:05:39.485Z,20.80
2018-05-11T12:08:11.126Z,21.00
2018-05-11T12:13:13.069Z,21.40
2018-05-11T12:15:40.603Z,21.40
2018-05-11T12:18:09.742Z,21.50
2018-05-11T12:20:37.769Z,21.40
2018-05-11T12:23:06.161Z,21.80
2018-05-11T12:25:33.597Z,21.80
2018-05-11T12:28:01.879Z,21.20
2018-05-11T12:30:30.165Z,21.20
2018-05-11T12:32:58.429Z,21.10
2018-05-11T12:35:26.708Z,21.20
2018-05-11T12:37:54.970Z,21.20
2018-05-11T12:40:22.485Z,21.20
2018-05-11T12:42:50.031Z,21.20
2018-05-11T12:45:17.541Z,21.30
2018-05-11T12:47:45.071Z,21.40
2018-05-11T12:50:12.574Z,21.30
2018-05-11T12:52:40.858Z,21.70
2018-05-11T12:55:09.750Z,21.70
2018-05-11T12:57:38.055Z,21.80
2018-05-11T13:00:05.554Z,21.70
2018-05-11T13:02:33.081Z,21.80
2018-05-11T13:05:00.598Z,21.20
2018-05-11T13:07:28.923Z,21.50
2018-05-11T13:09:56.441Z,21.40
2018-05-11T13:12:24.713Z,22.40
2018-05-11T13:14:53.034Z,22.90
2018-05-11T13:17:20.556Z,22.90
2018-05-11T13:19:48.846Z,23.60
2018-05-11T13:22:17.114Z,23.50
2018-05-11T13:24:48.727Z,23.70
2018-05-11T13:27:16.400Z,23.90
2018-05-11T13:29:43.935Z,24.10
2018-05-11T13:32:11.439Z,24.40
2018-05-11T13:34:39.737Z,25.00
2018-05-11T13:37:07.285Z,25.00
2018-05-11T13:39:35.633Z,25.20
2018-05-11T13:42:03.219Z,25.10
2018-05-11T13:44:31.483Z,23.90
2018-05-11T13:46:58.994Z,23.90
2018-05-11T13:49:26.523Z,23.10
2018-05-11T13:51:54.850Z,22.60
2018-05-11T13:54:22.469Z,22.50
2018-05-11T13:56:50.144Z,22.80
2018-05-11T13:59:17.706Z,23.20
2018-05-11T14:01:45.344Z,23.60
2018-05-11T14:04:12.975Z,23.90
2018-05-11T14:06:40.744Z,24.60
2018-05-11T14:09:08.270Z,25.30
2018-05-11T14:11:35.778Z,26.50
2018-05-11T14:14:04.195Z,28.40
2018-05-11T14:16:31.702Z,28.30
2018-05-11T14:18:59.425Z,29.80
2018-05-11T14:21:27.006Z,30.40
2018-05-11T14:23:54.650Z,30.90
2018-05-11T14:26:22.994Z,31.40
2018-05-11T14:28:51.268Z,31.20
2018-05-11T14:31:19.553Z,30.20
2018-05-11T14:33:47.105Z,30.20
2018-05-11T14:36:15.494Z,28.50
2018-05-11T14:38:43.064Z,28.40
2018-05-11T14:41:10.603Z,27.80
2018-05-11T14:43:38.917Z,26.30
2018-05-11T14:46:06.427Z,26.20
2018-05-11T14:48:33.927Z,25.90
2018-05-11T14:51:01.433Z,25.90
2018-05-11T14:53:28.925Z,25.70
2018-05-11T14:55:57.248Z,25.10
2018-05-11T14:58:24.790Z,25.00
2018-05-11T15:00:52.385Z,24.60
2018-05-11T15:14:19.656Z,23.10
2018-05-11T15:16:47.175Z,22.90
2018-05-11T15:19:14.829Z,22.70
2018-05-11T15:21:42.418Z,22.60
2018-05-11T15:24:10.695Z,22.20
2018-05-11T15:26:38.966Z,21.90
2018-05-11T15:29:06.470Z,21.90
2018-05-11T15:31:35.059Z,21.80
2018-05-11T15:47:07.620Z,21.60
2018-05-11T15:49:35.143Z,20.70
2018-05-11T15:52:03.479Z,20.90
2018-05-11T15:54:31.055Z,20.90
2018-05-11T15:56:58.591Z,20.90
2018-05-11T15:59:26.102Z,20.90
2018-05-11T16:01:54.428Z,21.10
2018-05-11T16:04:22.425Z,21.00
2018-05-11T16:06:49.963Z,21.10
2018-05-11T16:09:17.505Z,21.10
2018-05-11T16:11:45.082Z,21.10
2018-05-11T16:14:13.614Z,20.80
2018-05-11T16:16:41.897Z,20.60
2018-05-11T16:19:10.172Z,20.70
2018-05-11T16:21:38.471Z,20.80
2018-05-11T16:24:06.039Z,20.80
2018-05-11T16:26:33.645Z,20.80
2018-05-11T16:29:01.230Z,20.80
2018-05-11T16:31:29.513Z,20.80
2018-05-11T16:33:58.222Z,20.70
2018-05-11T16:36:25.753Z,20.70
2018-05-11T16:38:54.771Z,20.60
2018-05-11T16:41:26.371Z,20.60
2018-05-11T16:43:53.871Z,20.60
2018-05-11T16:46:21.381Z,20.70
2018-05-11T16:48:48.918Z,20.70
2018-05-11T16:51:16.657Z,20.40
2018-05-11T16:53:44.952Z,20.40
2018-05-11T16:56:13.033Z,20.40
2018-05-11T16:58:40.589Z,20.40
2018-05-11T17:01:08.142Z,20.40
2018-05-11T17:03:35.637Z,20.40
2018-05-11T17:06:03.138Z,20.40
2018-05-11T17:08:31.479Z,20.20
2018-05-11T17:10:59.018Z,20.20
2018-05-11T17:13:26.532Z,20.20
2018-05-11T17:15:54.831Z,20.10
2018-05-11T17:18:22.398Z,20.10
2018-05-11T17:20:49.909Z,20.10
2018-05-11T17:23:18.166Z,20.10
2018-05-11T17:25:45.965Z,20.10
2018-05-11T17:28:14.094Z,20.10
2018-05-11T17:30:45.629Z,20.20
2018-05-11T17:33:21.052Z,20.10
2018-05-11T17:35:48.597Z,20.10
2018-05-11T17:38:16.889Z,20.20
2018-05-11T17:40:44.394Z,20.20
2018-05-11T17:43:11.910Z,20.10
2018-05-11T17:45:39.441Z,19.90
2018-05-11T17:48:07.705Z,20.00
2018-05-11T17:50:35.235Z,19.90
2018-05-11T17:53:02.749Z,19.90
2018-05-11T17:55:31.101Z,19.60
2018-05-11T17:58:00.010Z,19.60
2018-05-11T18:00:28.315Z,19.60
2018-05-11T18:02:55.817Z,19.50
2018-05-11T18:05:23.661Z,19.60
2018-05-11T18:07:51.179Z,19.60
2018-05-11T18:10:20.289Z,19.70
2018-05-11T18:15:21.707Z,19.60
2018-05-11T18:17:49.347Z,19.60
2018-05-11T18:20:16.965Z,19.60
2018-05-11T18:22:45.253Z,19.50
2018-05-11T18:25:12.813Z,19.50
2018-05-11T18:27:40.321Z,19.50
2018-05-11T18:30:08.656Z,19.50
2018-05-11T18:32:36.191Z,19.40
2018-05-11T18:35:05.433Z,19.40
2018-05-11T18:37:33.031Z,19.30
2018-05-11T18:40:00.621Z,19.30
2018-05-11T18:42:28.922Z,19.40
2018-05-11T18:44:57.978Z,19.40
2018-05-11T18:47:25.506Z,19.40
2018-05-11T18:49:53.001Z,19.30
2018-05-11T18:52:21.394Z,19.20
2018-05-11T18:54:49.700Z,19.20
2018-05-11T18:57:17.223Z,19.10
2018-05-11T18:59:45.506Z,19.20
2018-05-11T19:02:13.799Z,19.00
2018-05-11T19:04:41.417Z,19.10
2018-05-11T19:07:09.943Z,19.00
2018-05-11T19:09:41.140Z,19.00
2018-05-11T19:12:08.635Z,19.00
2018-05-11T19:14:40.192Z,18.90
2018-05-11T19:17:08.195Z,18.90
2018-05-11T19:19:39.701Z,18.80
2018-05-11T19:22:08.002Z,18.70
2018-05-11T19:24:36.279Z,18.70
2018-05-11T19:27:03.777Z,18.80
2018-05-11T19:29:32.049Z,18.70
2018-05-11T19:31:59.637Z,18.70
2018-05-11T19:34:27.308Z,18.70
2018-05-11T19:36:55.590Z,18.50
2018-05-11T19:39:23.854Z,18.50
2018-05-11T19:41:51.383Z,18.50
2018-05-11T19:44:18.919Z,18.60
2018-05-11T19:46:46.478Z,18.60
2018-05-11T19:49:14.744Z,18.30
2018-05-11T19:51:42.291Z,18.30
2018-05-11T19:54:10.595Z,18.30
2018-05-11T19:56:38.133Z,18.30
2018-05-11T19:59:05.674Z,18.40
2018-05-11T20:01:33.981Z,18.30
2018-05-11T20:04:01.489Z,18.30
2018-05-11T20:06:29.007Z,18.20
2018-05-11T20:08:56.539Z,18.30
2018-05-11T20:11:24.951Z,18.30
2018-05-11T20:13:52.567Z,18.30
2018-05-11T20:16:21.537Z,18.10
2018-05-11T20:18:49.102Z,18.10
2018-05-11T20:21:16.610Z,18.10
2018-05-11T20:23:44.164Z,18.10
2018-05-11T20:26:11.704Z,18.00
2018-05-11T20:28:40.019Z,18.00
2018-05-11T20:31:07.545Z,18.00
2018-05-11T20:33:35.858Z,18.10
2018-05-11T20:36:03.377Z,18.10
2018-05-11T20:38:31.669Z,18.10
2018-05-11T20:40:59.976Z,18.10
2018-05-11T20:43:27.547Z,18.10
2018-05-11T20:45:55.165Z,18.10
2018-05-11T20:48:23.450Z,18.10
2018-05-11T20:50:51.073Z,18.10
2018-05-11T20:53:19.272Z,17.90
2018-05-11T20:55:48.145Z,17.90
2018-05-11T20:58:15.686Z,17.90
2018-05-11T21:00:43.215Z,17.90
2018-05-11T21:03:11.374Z,17.90
2018-05-11T21:05:38.887Z,17.90
2018-05-11T21:08:06.857Z,17.80
2018-05-11T21:10:34.362Z,17.80
2018-05-11T21:13:01.881Z,17.80
2018-05-11T21:15:29.405Z,17.80
2018-05-11T21:17:56.934Z,17.80
2018-05-11T21:20:24.445Z,17.80
2018-05-11T21:22:51.985Z,17.70
2018-05-11T21:25:19.626Z,17.70
2018-05-11T21:27:47.219Z,17.60
2018-05-11T21:30:15.462Z,17.60
2018-05-11T21:32:42.981Z,17.50
2018-05-11T21:35:10.507Z,17.60
2018-05-11T21:47:23.061Z,17.50
2018-05-11T21:49:50.576Z,16.80
2018-05-11T21:52:18.071Z,16.80
2018-05-11T21:54:45.595Z,16.90
2018-05-11T21:57:13.249Z,17.00
2018-05-11T21:59:40.863Z,17.10
2018-05-11T22:02:11.109Z,17.10
2018-05-11T22:17:39.425Z,16.40
2018-05-11T22:20:07.721Z,16.50
2018-05-11T22:22:36.081Z,16.50
2018-05-11T22:25:04.356Z,16.80
2018-05-11T22:27:32.631Z,16.90
2018-05-11T22:30:04.901Z,16.90
2018-05-11T22:32:33.185Z,17.00
2018-05-11T22:35:01.475Z,17.00
2018-05-11T22:37:29.261Z,17.00
2018-05-11T22:39:57.643Z,17.00
2018-05-11T22:42:25.190Z,16.90
2018-05-11T22:44:52.691Z,16.90
2018-05-11T22:47:20.220Z,17.00
2018-05-11T22:49:47.722Z,17.10
2018-05-11T22:52:15.264Z,17.00
2018-05-11T22:54:43.024Z,17.10
2018-05-11T22:57:10.524Z,17.20
2018-05-11T22:59:38.882Z,17.00
2018-05-11T23:02:06.469Z,17.00
2018-05-11T23:04:34.746Z,17.00
2018-05-11T23:07:03.012Z,16.90
2018-05-11T23:09:31.296Z,16.90
2018-05-11T23:12:03.841Z,17.00
2018-05-11T23:14:31.933Z,17.00
2018-05-11T23:16:59.451Z,17.10
2018-05-11T23:19:27.034Z,17.10
2018-05-11T23:21:54.562Z,17.00
2018-05-11T23:24:22.079Z,16.90
2018-05-11T23:26:50.358Z,17.10
2018-05-11T23:42:22.914Z,17.10
2018-05-11T23:44:50.417Z,16.30
2018-05-11T23:47:17.939Z,16.40
2018-05-11T23:49:46.329Z,16.50
2018-05-11T23:52:14.614Z,16.60
2018-05-11T23:54:42.855Z,16.60
2018-05-11T23:57:10.372Z,16.70
2018-05-11T23:59:37.874Z,16.60
